Time;durP1;ratioP1;P1;durP2;ratioP2;P2;SDS_P1;SDS_P2;PMS_P1;PMS_P2;Temp;Humidity;BMP_temperature;BMP_pressure;BME280_temperature;BME280_humidity;BME280_pressure;Samples;Min_cycle;Max_cycle;Signal;HPM_P1;HPM_P2
2022/10/08 00:09:37;;;;;;;12.70;10.00;;;;;;;7.90;97.40;98156.03;105363;1294;609446;-83
2022/10/08 00:12:06;;;;;;;16.10;8.20;;;;;;;7.91;98.48;98150.96;106789;1269;305143;-83
2022/10/08 00:14:38;;;;;;;;;;;;;;;7.89;99.58;98147.56;107156;1279;57680;-83
2022/10/08 00:17:08;;;;;;;11.00;8.70;;;;;;;7.87;100.00;98147.20;106994;1279;68168;-81
2022/10/08 00:19:37;;;;;;;11.70;9.70;;;;;;;7.83;100.00;98143.21;107209;1278;67633;-82
2022/10/08 00:22:06;;;;;;;16.60;11.30;;;;;;;7.78;100.00;98140.51;107109;1276;69171;-82
2022/10/08 00:24:38;;;;;;;13.30;10.20;;;;;;;7.70;99.75;98136.58;107188;1278;57718;-83
2022/10/08 00:27:09;;;;;;;10.90;7.60;;;;;;;7.62;99.81;98135.23;107904;1263;57985;-83
2022/10/08 00:44:02;;;;;;;11.00;9.00;;;;;;;7.58;97.18;98128.48;105322;1298;609345;-81
2022/10/08 00:46:40;;;;;;;11.70;9.40;;;;;;;7.53;97.17;98123.02;106613;1275;562722;-82
2022/10/08 00:49:10;;;;;;;13.10;8.80;;;;;;;7.54;96.86;98118.29;107146;1279;57650;-81
2022/10/08 00:51:44;;;;;;;10.90;9.70;;;;;;;7.60;98.22;98119.01;107093;1279;68116;-81
2022/10/08 00:54:13;;;;;;;18.40;13.60;;;;;;;7.59;98.98;98116.44;107119;1279;68386;-82
2022/10/08 00:56:50;;;;;;;16.60;12.60;;;;;;;7.62;99.31;98113.73;107262;1280;69501;-83
2022/10/08 00:59:20;;;;;;;14.70;11.20;;;;;;;7.64;99.43;98111.55;107131;1279;57688;-82
2022/10/08 01:01:49;;;;;;;16.90;12.30;;;;;;;7.65;98.83;98112.70;107243;1275;58094;-82
2022/10/08 01:04:18;;;;;;;13.40;10.80;;;;;;;7.63;98.73;98109.66;107589;1273;68856;-82
2022/10/08 01:07:10;;;;;;;16.90;11.90;;;;;;;7.62;98.22;98107.64;107647;1273;70272;-81
2022/10/08 01:09:48;;;;;;;15.90;11.80;;;;;;;7.62;100.00;98104.66;107559;1273;69867;-82
2022/10/08 01:12:59;;;;;;;9.10;7.10;;;;;;;7.62;99.27;98105.20;107636;1269;58187;-83
2022/10/08 01:15:33;;;;;;;13.40;9.30;;;;;;;7.62;98.66;98107.31;107672;1273;58182;-82
2022/10/08 01:18:13;;;;;;;11.80;9.60;;;;;;;7.58;99.67;98105.23;107612;1273;69776;-82
2022/10/08 01:20:58;;;;;;;14.50;10.80;;;;;;;7.52;99.94;98106.40;107466;1273;68453;-82
2022/10/08 01:23:52;;;;;;;11.90;9.20;;;;;;;7.46;100.00;98101.16;107487;1273;68347;-82
2022/10/08 01:26:38;;;;;;;14.10;11.80;;;;;;;7.39;100.00;98100.45;107584;1273;58161;-83
2022/10/08 01:29:18;;;;;;;8.00;6.10;;;;;;;7.34;100.00;98100.39;107435;1268;58159;-81
2022/10/08 01:31:53;;;;;;;10.30;7.80;;;;;;;7.32;99.86;98097.86;107539;1272;70651;-81
2022/10/08 01:34:36;;;;;;;12.60;9.80;;;;;;;7.28;100.00;98098.39;108209;1267;69159;-81
2022/10/08 01:37:13;;;;;;;12.10;9.50;;;;;;;7.15;100.00;98095.19;108452;1267;68300;-81
2022/10/08 01:39:46;;;;;;;15.60;10.10;;;;;;;7.06;100.00;98096.52;107886;1267;58072;-81
2022/10/08 01:42:19;;;;;;;14.70;10.10;;;;;;;7.01;99.91;98090.87;108070;1267;58111;-81
2022/10/08 01:44:54;;;;;;;16.20;10.50;;;;;;;6.96;100.00;98092.33;107721;1267;68849;-80
2022/10/08 01:47:29;;;;;;;13.50;9.30;;;;;;;6.91;100.00;98091.85;107708;1264;69314;-80
2022/10/08 01:50:11;;;;;;;20.20;9.70;;;;;;;6.85;100.00;98091.60;107676;1269;69480;-80
2022/10/08 01:52:50;;;;;;;17.40;13.20;;;;;;;6.80;100.00;98092.71;107889;1267;58553;-81
2022/10/08 01:55:31;;;;;;;37.10;15.90;;;;;;;6.71;100.00;98096.09;107896;1266;58113;-81
2022/10/08 01:58:33;;;;;;;26.60;15.30;;;;;;;6.58;100.00;98093.52;107693;1267;69006;-81
2022/10/08 02:01:14;;;;;;;31.10;16.90;;;;;;;6.39;98.98;98095.29;107745;1263;68343;-81
2022/10/08 02:04:32;;;;;;;19.10;13.20;;;;;;;6.14;98.98;98100.40;107661;1267;69189;-81
2022/10/08 02:06:43;;;;;;;13.70;10.40;;;;;;;6.01;99.78;98102.67;107770;1269;58124;-81
2022/10/08 02:09:14;;;;;;;15.70;9.50;;;;;;;5.97;99.87;98099.05;107944;1271;58097;-81
2022/10/08 02:11:43;;;;;;;16.30;11.10;;;;;;;5.96;100.00;98098.91;107742;1267;69321;-81
2022/10/08 02:14:13;;;;;;;17.60;12.20;;;;;;;5.98;100.00;98098.47;107757;1264;69227;-83
2022/10/08 02:16:50;;;;;;;15.90;12.40;;;;;;;5.97;100.00;98098.52;107818;1266;68281;-79
2022/10/08 02:19:37;;;;;;;22.30;15.20;;;;;;;5.96;100.00;98097.37;107641;1266;58171;-82
2022/10/08 02:22:07;;;;;;;17.20;12.70;;;;;;;5.91;100.00;98100.31;107762;1267;58144;-82
2022/10/08 02:24:47;;;;;;;18.00;13.50;;;;;;;5.86;100.00;98098.80;107805;1269;68791;-82
2022/10/08 02:27:28;;;;;;;12.70;9.30;;;;;;;5.82;100.00;98101.55;107896;1267;69238;-80
2022/10/08 02:30:06;;;;;;;13.30;10.40;;;;;;;5.79;100.00;98100.84;107835;1267;69393;-82
2022/10/08 02:33:04;;;;;;;16.00;10.30;;;;;;;5.77;100.00;98102.99;107904;1266;58090;-80
2022/10/08 02:35:56;;;;;;;16.90;12.10;;;;;;;5.75;100.00;98103.41;107922;1267;58148;-80
2022/10/08 02:38:50;;;;;;;14.80;8.50;;;;;;;5.75;100.00;98100.48;107842;1267;69211;-81
2022/10/08 02:41:27;;;;;;;11.80;8.60;;;;;;;5.73;100.00;98101.25;107999;1263;69034;-80
2022/10/08 02:44:05;;;;;;;8.80;7.40;;;;;;;5.73;99.86;98102.48;107792;1267;68345;-81
2022/10/08 02:46:39;;;;;;;14.90;11.90;;;;;;;5.71;99.64;98101.33;107702;1268;58162;-81
2022/10/08 02:49:18;;;;;;;14.60;11.30;;;;;;;5.66;99.56;98102.92;107793;1266;58185;-81
2022/10/08 02:51:50;;;;;;;17.30;12.40;;;;;;;5.59;100.00;98102.35;107956;1267;70309;-80
2022/10/08 02:54:22;;;;;;;16.40;11.20;;;;;;;5.56;100.00;98105.07;107840;1268;68024;-81
2022/10/08 02:57:03;;;;;;;17.90;9.60;;;;;;;5.56;100.00;98101.79;107628;1267;69196;-80
2022/10/08 02:59:37;;;;;;;10.70;8.20;;;;;;;5.58;100.00;98102.04;107886;1270;58095;-81
2022/10/08 03:02:11;;;;;;;10.50;7.90;;;;;;;5.60;100.00;98103.35;107938;1270;58052;-80
2022/10/08 03:04:47;;;;;;;11.10;8.80;;;;;;;5.61;100.00;98101.20;107757;1267;69628;-80
2022/10/08 03:07:17;;;;;;;14.90;10.70;;;;;;;5.62;100.00;98101.70;107826;1270;68419;-79
2022/10/08 03:09:47;;;;;;;20.60;14.40;;;;;;;5.60;100.00;98103.50;107850;1267;68462;-80
2022/10/08 03:12:17;;;;;;;19.20;13.50;;;;;;;5.55;100.00;98102.86;107834;1267;58159;-81
2022/10/08 03:14:48;;;;;;;21.60;13.10;;;;;;;5.52;100.00;98099.19;107902;1268;58095;-79
2022/10/08 03:17:29;;;;;;;18.70;12.80;;;;;;;5.49;100.00;98099.98;107754;1267;68760;-80
2022/10/08 03:20:04;;;;;;;18.50;13.40;;;;;;;5.48;100.00;98100.75;107861;1267;69016;-80
2022/10/08 03:22:34;;;;;;;17.90;11.90;;;;;;;5.46;100.00;98103.23;107884;1270;69403;-80
2022/10/08 03:25:04;;;;;;;15.50;9.90;;;;;;;5.44;100.00;98106.06;107862;1273;58172;-79
2022/10/08 03:27:34;;;;;;;16.10;9.40;;;;;;;5.43;100.00;98103.23;107580;1267;58094;-82
2022/10/08 03:30:04;;;;;;;19.10;11.00;;;;;;;5.41;100.00;98107.94;107793;1267;69012;-81
2022/10/08 03:32:33;;;;;;;17.60;11.70;;;;;;;5.41;100.00;98105.02;107849;1269;69387;-80
2022/10/08 03:35:02;;;;;;;14.60;8.90;;;;;;;5.38;100.00;98106.16;107936;1267;69135;-79
2022/10/08 03:37:32;;;;;;;14.20;8.00;;;;;;;5.36;100.00;98100.20;107952;1267;58091;-80
2022/10/08 03:40:00;;;;;;;11.90;8.90;;;;;;;5.34;100.00;98098.72;107769;1267;58095;-80
2022/10/08 03:42:29;;;;;;;12.10;8.40;;;;;;;5.33;100.00;98093.92;107867;1267;69755;-80
2022/10/08 03:45:00;;;;;;;9.40;7.40;;;;;;;5.31;100.00;98091.20;107882;1266;69014;-79
2022/10/08 03:47:29;;;;;;;11.20;7.30;;;;;;;5.29;100.00;98088.36;107962;1268;69778;-80
2022/10/08 03:49:58;;;;;;;11.00;8.10;;;;;;;5.28;100.00;98091.20;108786;1268;58048;-79
2022/10/08 03:52:29;;;;;;;13.40;8.90;;;;;;;5.28;100.00;98093.08;107798;1269;58143;-81
2022/10/08 03:54:59;;;;;;;15.50;11.30;;;;;;;5.29;100.00;98090.83;107752;1270;69851;-81
2022/10/08 03:57:27;;;;;;;13.60;9.40;;;;;;;5.28;100.00;98088.77;108605;1270;69120;-81
2022/10/08 03:59:56;;;;;;;10.70;8.90;;;;;;;5.28;100.00;98087.73;109188;1268;68530;-80
2022/10/08 04:02:26;;;;;;;;;;;;;;;5.29;100.00;98086.85;107907;1268;58162;-80
2022/10/08 04:04:55;;;;;;;9.10;6.90;;;;;;;5.27;100.00;98082.92;107869;1270;58052;-80
2022/10/08 04:07:25;;;;;;;11.50;8.80;;;;;;;5.27;100.00;98080.70;108067;1269;69382;-80
2022/10/08 04:09:54;;;;;;;10.40;8.50;;;;;;;5.28;100.00;98082.02;107732;1267;69208;-80
2022/10/08 04:12:23;;;;;;;9.30;6.70;;;;;;;5.27;100.00;98079.31;107841;1270;68466;-80
2022/10/08 04:14:52;;;;;;;9.50;7.50;;;;;;;5.25;100.00;98081.80;107859;1268;58109;-80
2022/10/08 04:17:21;;;;;;;8.50;7.40;;;;;;;5.24;100.00;98081.52;107774;1269;58550;-80
2022/10/08 04:19:51;;;;;;;10.30;7.40;;;;;;;5.21;100.00;98080.40;107738;1270;69764;-80
2022/10/08 04:22:20;;;;;;;8.80;7.30;;;;;;;5.20;100.00;98081.68;107691;1269;69241;-79
2022/10/08 04:24:50;;;;;;;11.90;8.20;;;;;;;5.20;100.00;98083.92;107693;1269;68502;-80
2022/10/08 04:27:19;;;;;;;101.30;47.40;;;;;;;5.21;100.00;98081.64;107783;1269;58110;-80
2022/10/08 04:29:48;;;;;;;89.60;42.90;;;;;;;5.21;100.00;98077.45;107732;1270;58087;-80
2022/10/08 04:32:17;;;;;;;78.30;36.30;;;;;;;5.22;100.00;98078.30;107738;1269;69538;-79
2022/10/08 04:34:46;;;;;;;56.60;32.50;;;;;;;5.23;100.00;98076.19;107827;1269;70038;-80
2022/10/08 04:37:15;;;;;;;29.30;16.60;;;;;;;5.25;100.00;98076.29;107637;1269;70134;-80
2022/10/08 04:39:43;;;;;;;19.00;12.00;;;;;;;5.25;100.00;98081.10;107880;1269;58148;-80
2022/10/08 04:42:12;;;;;;;13.40;10.20;;;;;;;5.26;100.00;98080.36;107819;1269;58119;-80
2022/10/08 04:44:41;;;;;;;13.40;10.40;;;;;;;5.28;100.00;98075.98;107784;1270;69023;-80
2022/10/08 04:47:10;;;;;;;15.50;12.20;;;;;;;5.30;100.00;98073.98;107685;1269;69068;-80
2022/10/08 04:49:39;;;;;;;14.80;10.20;;;;;;;5.33;100.00;98071.95;107817;1268;69230;-80
2022/10/08 04:52:08;;;;;;;13.20;10.10;;;;;;;5.35;100.00;98070.67;107998;1267;58106;-80
2022/10/08 04:54:37;;;;;;;10.80;8.30;;;;;;;5.39;100.00;98068.80;108363;1267;58116;-80
2022/10/08 04:57:06;;;;;;;11.80;10.20;;;;;;;5.43;100.00;98069.31;108546;1267;68980;-80
2022/10/08 04:59:34;;;;;;;14.50;10.60;;;;;;;5.46;100.00;98073.33;107915;1264;68405;-76
2022/10/08 05:02:06;;;;;;;9.40;7.60;;;;;;;5.49;100.00;98067.99;107699;1268;67782;-81
2022/10/08 05:04:36;;;;;;;13.80;10.10;;;;;;;5.52;100.00;98065.63;107884;1267;59002;-80
2022/10/08 05:07:05;;;;;;;13.30;9.10;;;;;;;5.56;100.00;98063.04;108121;1267;58898;-80
2022/10/08 05:21:42;;;;;;;15.90;11.40;;;;;;;6.21;100.00;98066.48;105397;1296;609542;-78
2022/10/08 05:24:11;;;;;;;19.40;13.00;;;;;;;6.40;100.00;98065.65;106761;1277;287357;-80
2022/10/08 05:26:40;;;;;;;27.60;19.50;;;;;;;6.46;100.00;98070.22;107170;1277;57673;-82
2022/10/08 05:29:29;;;;;;;33.70;24.60;;;;;;;6.50;100.00;98071.24;107182;1278;68911;-81
2022/10/08 05:31:57;;;;;;;33.60;23.10;;;;;;;6.57;100.00;98074.91;107839;1265;69202;-81
2022/10/08 05:34:26;;;;;;;28.10;20.90;;;;;;;6.61;100.00;98071.21;107806;1266;68316;-81
2022/10/08 05:36:55;;;;;;;28.50;20.80;;;;;;;6.69;100.00;98072.30;107747;1264;57727;-80
2022/10/08 05:39:23;;;;;;;28.20;22.10;;;;;;;6.79;100.00;98070.41;107796;1270;57666;-82
2022/10/08 05:41:53;;;;;;;26.60;19.60;;;;;;;6.92;100.00;98075.34;107831;1266;68663;-80
2022/10/08 05:44:22;;;;;;;26.30;19.50;;;;;;;7.10;100.00;98069.30;107804;1266;69213;-80
2022/10/08 05:46:50;;;;;;;23.00;17.70;;;;;;;7.30;99.75;98072.30;107728;1270;69278;-81
2022/10/08 05:49:21;;;;;;;17.60;15.40;;;;;;;7.46;98.42;98072.21;107765;1265;58157;-81
2022/10/08 05:51:50;;;;;;;16.30;13.70;;;;;;;7.59;96.72;98072.20;107850;1265;58129;-81
2022/10/08 05:54:19;;;;;;;22.50;15.20;;;;;;;7.76;96.40;98072.80;107769;1260;70505;-81
2022/10/08 05:56:47;;;;;;;19.10;14.80;;;;;;;7.96;96.26;98074.16;107845;1269;69037;-82
2022/10/08 05:59:19;;;;;;;18.80;13.80;;;;;;;8.20;96.65;98072.77;107651;1266;69887;-81
2022/10/08 06:01:49;;;;;;;17.60;13.90;;;;;;;8.42;94.20;98070.73;107737;1265;58162;-82
2022/10/08 06:04:18;;;;;;;20.50;14.50;;;;;;;8.57;92.15;98072.17;107824;1266;58098;-83
2022/10/08 06:06:47;;;;;;;17.70;11.90;;;;;;;8.75;93.54;98074.48;107563;1269;70414;-82
2022/10/08 06:09:18;;;;;;;33.70;17.20;;;;;;;8.99;93.60;98077.88;107702;1263;69957;-82
2022/10/08 06:24:20;;;;;;;12.90;11.50;;;;;;;10.29;86.28;98091.16;105196;1295;610089;-84
2022/10/08 06:26:49;;;;;;;15.10;11.00;;;;;;;10.60;83.50;98091.52;106630;1279;235639;-82
2022/10/08 06:29:18;;;;;;;12.40;11.10;;;;;;;10.91;83.13;98087.56;107283;1276;57731;-83
2022/10/08 06:31:47;;;;;;;10.60;9.50;;;;;;;10.98;80.81;98087.96;107442;1277;68209;-83
2022/10/08 06:34:16;;;;;;;10.80;9.60;;;;;;;11.15;80.83;98088.81;107360;1280;68297;-83
2022/10/08 06:49:55;;;;;;;7.80;7.20;;;;;;;13.38;73.07;98083.46;105358;1295;610196;-84
2022/10/08 06:52:23;;;;;;;8.50;7.70;;;;;;;13.91;71.45;98084.52;107357;1273;250877;-84
2022/10/08 06:54:52;;;;;;;8.30;7.40;;;;;;;13.96;70.72;98081.60;107732;1269;57748;-84
2022/10/08 06:57:21;;;;;;;8.20;7.40;;;;;;;14.00;70.74;98081.09;107820;1271;69932;-84
2022/10/08 06:59:53;;;;;;;8.40;7.50;;;;;;;14.08;70.22;98080.27;107947;1262;69274;-83
2022/10/08 07:02:22;;;;;;;9.80;7.90;;;;;;;14.28;69.33;98077.48;107963;1269;69359;-84
2022/10/08 07:04:50;;;;;;;8.00;7.20;;;;;;;14.48;69.26;98076.19;107656;1270;57987;-84
2022/10/08 07:07:19;;;;;;;8.70;7.80;;;;;;;14.62;69.26;98074.73;107598;1269;57702;-84
2022/10/08 07:09:47;;;;;;;7.70;7.00;;;;;;;15.04;67.88;98077.17;107796;1269;68216;-84
2022/10/08 07:12:16;;;;;;;7.30;6.60;;;;;;;15.29;67.57;98076.85;107743;1269;68266;-83
2022/10/08 07:14:44;;;;;;;8.50;7.50;;;;;;;15.75;65.93;98078.56;107561;1270;69214;-84
2022/10/08 07:17:13;;;;;;;7.80;6.20;;;;;;;15.88;64.91;98078.92;107590;1273;58113;-84
2022/10/08 07:19:41;;;;;;;6.80;6.10;;;;;;;16.27;64.10;98076.30;107697;1271;58510;-83
2022/10/08 07:22:10;;;;;;;7.60;6.40;;;;;;;16.49;62.65;98070.30;107527;1268;69187;-83
2022/10/08 07:24:38;;;;;;;6.70;6.00;;;;;;;16.91;62.20;98063.24;107582;1269;68188;-83
2022/10/08 07:27:07;;;;;;;7.30;6.60;;;;;;;17.04;61.42;98059.44;107610;1267;69275;-83
2022/10/08 07:29:35;;;;;;;7.70;6.20;;;;;;;17.46;60.61;98064.42;107570;1269;58159;-83
2022/10/08 07:32:04;;;;;;;5.60;5.10;;;;;;;17.72;58.89;98062.54;107636;1266;58151;-83
2022/10/08 07:34:32;;;;;;;6.00;5.40;;;;;;;17.86;58.20;98058.34;107655;1269;69029;-82
2022/10/08 07:37:01;;;;;;;5.70;5.00;;;;;;;17.97;57.79;98054.51;107644;1269;68350;-82
2022/10/08 07:39:29;;;;;;;5.40;4.80;;;;;;;17.84;57.38;98052.86;107653;1268;69336;-82
2022/10/08 07:41:58;;;;;;;5.30;4.70;;;;;;;18.01;57.23;98054.27;107632;1269;58074;-83
2022/10/08 07:44:26;;;;;;;6.10;5.50;;;;;;;18.35;57.50;98049.20;107637;1270;58106;-82
2022/10/08 07:46:54;;;;;;;7.50;6.40;;;;;;;18.65;56.05;98045.08;107531;1272;69784;-84
2022/10/08 07:49:23;;;;;;;6.00;5.40;;;;;;;18.91;54.65;98043.45;107688;1271;69320;-83
2022/10/08 07:51:51;;;;;;;5.90;5.30;;;;;;;19.07;54.68;98041.95;107626;1265;69146;-76
2022/10/08 07:54:20;;;;;;;6.40;5.00;;;;;;;18.99;54.06;98042.14;107568;1272;58152;-76
2022/10/08 07:56:49;;;;;;;6.00;4.80;;;;;;;19.50;53.79;98039.79;107608;1266;58141;-76
2022/10/08 07:59:17;;;;;;;5.90;5.40;;;;;;;19.68;52.58;98041.03;107673;1269;70453;-77
2022/10/08 08:01:45;;;;;;;6.60;5.30;;;;;;;19.75;52.23;98040.97;107681;1273;69570;-77
2022/10/08 08:04:14;;;;;;;6.70;5.10;;;;;;;20.04;51.73;98045.19;107798;1265;69278;-75
2022/10/08 08:06:51;;;;;;;6.00;4.90;;;;;;;20.49;50.26;98042.20;107744;1269;58161;-77
2022/10/08 08:09:20;;;;;;;5.40;4.90;;;;;;;20.60;50.10;98041.55;107837;1266;58157;-76
2022/10/08 08:11:48;;;;;;;6.10;5.50;;;;;;;20.66;49.58;98039.83;107816;1267;68720;-75
2022/10/08 08:14:18;;;;;;;4.50;4.10;;;;;;;20.85;50.08;98036.46;107778;1266;69892;-76
2022/10/08 08:16:47;;;;;;;5.30;4.30;;;;;;;21.52;48.41;98040.52;107764;1269;69205;-75
2022/10/08 08:19:16;;;;;;;5.00;4.30;;;;;;;21.95;47.46;98035.94;107776;1269;58130;-76
2022/10/08 08:21:44;;;;;;;5.10;4.70;;;;;;;22.45;46.65;98025.88;107840;1269;58112;-76
2022/10/08 08:24:14;;;;;;;5.70;5.10;;;;;;;21.96;45.80;98033.29;107821;1269;70437;-77
2022/10/08 08:26:43;;;;;;;4.90;4.40;;;;;;;21.59;46.63;98034.60;107784;1269;69205;-75
2022/10/08 08:29:14;;;;;;;5.30;4.80;;;;;;;21.67;46.53;98027.89;107629;1265;70067;-76
2022/10/08 08:31:47;;;;;;;6.00;5.40;;;;;;;21.91;45.71;98027.77;107836;1269;58106;-77
2022/10/08 08:34:23;;;;;;;5.10;4.60;;;;;;;22.11;45.36;98023.56;107758;1265;58090;-77
2022/10/08 08:36:52;;;;;;;6.70;5.30;;;;;;;22.11;45.99;98020.95;107835;1267;71087;-76
2022/10/08 08:39:24;;;;;;;4.70;4.20;;;;;;;22.79;44.23;98014.25;107776;1269;68584;-76
2022/10/08 08:42:16;;;;;;;5.20;4.60;;;;;;;21.99;45.00;98014.92;107799;1269;69549;-76
2022/10/08 08:45:34;;;;;;;5.10;4.60;;;;;;;21.57;46.48;98017.48;107849;1269;58158;-75
2022/10/08 08:48:22;;;;;;;6.60;5.20;;;;;;;22.35;45.26;98010.55;107767;1266;58120;-77
2022/10/08 08:50:57;;;;;;;5.50;4.50;;;;;;;22.77;43.63;98008.37;107747;1269;69092;-74
2022/10/08 08:53:26;;;;;;;5.00;4.10;;;;;;;22.95;43.52;98008.33;107813;1267;69201;-76
2022/10/08 08:55:59;;;;;;;7.30;5.10;;;;;;;23.69;41.75;98008.98;107778;1270;69893;-74
2022/10/08 08:58:40;;;;;;;5.40;4.90;;;;;;;23.48;41.68;98009.11;107817;1269;58077;-76
2022/10/08 09:01:16;;;;;;;4.60;4.10;;;;;;;23.59;42.29;98006.42;107799;1269;58103;-75
2022/10/08 09:03:51;;;;;;;5.40;4.90;;;;;;;23.87;42.06;98005.27;107843;1266;69713;-76
2022/10/08 09:06:24;;;;;;;5.90;5.40;;;;;;;24.24;40.84;98002.38;107736;1269;69930;-76
2022/10/08 09:09:28;;;;;;;6.60;4.90;;;;;;;23.79;41.48;97998.36;107791;1265;69982;-76
2022/10/08 09:11:57;;;;;;;4.30;3.90;;;;;;;23.56;42.47;97995.02;107727;1269;58120;-76
2022/10/08 09:14:37;;;;;;;;;;;;;;;24.60;41.94;97989.77;107838;1266;58172;-75
2022/10/08 09:17:17;;;;;;;5.80;5.10;;;;;;;25.22;39.42;97985.02;107791;1268;70394;-77
2022/10/08 09:19:48;;;;;;;6.50;5.80;;;;;;;25.12;39.36;97983.10;107804;1269;69176;-77
2022/10/08 09:22:34;;;;;;;6.50;5.80;;;;;;;24.53;39.79;97976.58;107785;1265;69295;-75
2022/10/08 09:25:23;;;;;;;4.70;4.00;;;;;;;24.27;40.14;97975.64;107768;1266;58100;-75
2022/10/08 09:27:55;;;;;;;5.40;4.40;;;;;;;24.80;40.29;97973.84;107827;1269;58143;-76
2022/10/08 09:30:23;;;;;;;5.70;5.10;;;;;;;25.49;38.68;97972.39;107909;1269;68801;-76
2022/10/08 09:32:54;;;;;;;7.70;5.80;;;;;;;25.47;38.58;97971.56;107717;1269;68029;-76
2022/10/08 09:35:24;;;;;;;6.00;5.40;;;;;;;24.62;39.22;97963.86;107751;1269;68508;-77
2022/10/08 09:37:55;;;;;;;4.90;4.50;;;;;;;24.62;39.65;97966.02;107994;1265;58141;-77
2022/10/08 09:40:26;;;;;;;5.20;4.30;;;;;;;25.74;38.18;97964.49;108153;1268;58119;-77
2022/10/08 09:43:11;;;;;;;5.10;4.60;;;;;;;25.49;38.04;97957.91;107955;1269;69777;-76
2022/10/08 09:45:48;;;;;;;6.00;5.40;;;;;;;25.77;37.99;97959.77;107841;1263;69023;-77
2022/10/08 09:48:28;;;;;;;4.90;4.40;;;;;;;25.96;37.87;97956.08;107854;1268;68530;-75
2022/10/08 09:51:26;;;;;;;6.20;5.60;;;;;;;25.73;37.67;97957.20;107854;1263;58140;-75
2022/10/08 09:53:58;;;;;;;5.70;4.60;;;;;;;25.83;36.76;97950.81;107833;1269;58056;-75
2022/10/08 09:56:29;;;;;;;8.50;5.30;;;;;;;25.28;37.99;97944.66;107894;1266;69763;-76
2022/10/08 09:59:04;;;;;;;4.70;4.30;;;;;;;25.58;38.24;97940.56;107812;1267;69295;-75
2022/10/08 10:01:33;;;;;;;4.40;4.00;;;;;;;26.26;37.24;97931.09;107897;1265;69339;-75
2022/10/08 10:04:02;;;;;;;5.60;4.70;;;;;;;25.88;36.16;97931.68;107942;1267;58112;-76
2022/10/08 10:06:36;;;;;;;5.40;4.10;;;;;;;25.86;36.06;97926.52;108032;1267;58092;-73
2022/10/08 10:09:22;;;;;;;5.70;4.10;;;;;;;25.61;36.68;97925.70;107935;1267;70792;-74
2022/10/08 10:12:30;;;;;;;5.40;3.40;;;;;;;25.90;34.83;97913.33;107919;1269;69873;-74
2022/10/08 10:15:13;;;;;;;4.40;3.40;;;;;;;26.31;34.69;97910.23;107868;1269;69884;-75
2022/10/08 10:17:53;;;;;;;7.50;5.30;;;;;;;26.83;34.36;97903.02;107634;1260;58109;-76
2022/10/08 10:20:30;;;;;;;5.00;4.50;;;;;;;26.33;35.29;97903.59;107708;1267;58229;-75
2022/10/08 10:23:10;;;;;;;5.60;4.00;;;;;;;27.06;33.39;97898.55;107898;1267;70438;-75
2022/10/08 10:26:09;;;;;;;4.90;4.20;;;;;;;26.74;34.30;97897.66;107776;1267;69009;-75
2022/10/08 10:28:38;;;;;;;4.70;4.20;;;;;;;25.97;35.28;97893.52;107920;1267;69290;-75
2022/10/08 10:31:15;;;;;;;4.70;4.20;;;;;;;26.05;35.71;97895.64;107906;1267;58149;-74
2022/10/08 10:34:01;;;;;;;6.70;6.10;;;;;;;26.77;35.21;97892.36;107955;1267;58102;-73
2022/10/08 10:36:49;;;;;;;4.00;3.60;;;;;;;26.90;33.80;97883.66;107869;1266;69699;-74
2022/10/08 10:39:41;;;;;;;;;;;;;;;27.27;34.35;97886.59;107928;1268;68498;-75
2022/10/08 10:42:17;;;;;;;6.10;5.50;;;;;;;27.87;33.02;97879.63;107817;1268;68322;-75
2022/10/08 10:44:57;;;;;;;6.30;5.40;;;;;;;28.23;32.41;97878.07;108004;1268;58164;-75
2022/10/08 10:47:31;;;;;;;5.40;4.90;;;;;;;27.36;32.47;97871.77;107968;1268;58123;-75
2022/10/08 10:50:24;;;;;;;4.90;4.30;;;;;;;27.53;32.54;97867.25;107963;1260;68781;-75
2022/10/08 10:53:28;;;;;;;6.30;4.20;;;;;;;27.71;32.27;97856.75;107899;1267;69168;-74
2022/10/08 10:56:15;;;;;;;4.60;4.20;;;;;;;26.16;34.01;97851.12;107787;1269;68407;-74
2022/10/08 10:59:22;;;;;;;4.20;3.70;;;;;;;26.90;33.44;97848.73;107725;1267;58070;-74
2022/10/08 11:02:03;;;;;;;5.10;4.60;;;;;;;26.79;34.11;97846.31;107952;1269;58015;-74
2022/10/08 11:04:59;;;;;;;5.00;4.50;;;;;;;27.66;33.14;97841.34;108063;1267;70537;-75
2022/10/08 11:07:40;;;;;;;4.10;3.70;;;;;;;28.12;31.79;97837.96;107853;1269;69942;-74
2022/10/08 11:11:10;;;;;;;3.90;3.50;;;;;;;28.57;31.19;97837.24;107848;1263;69293;-76
2022/10/08 11:13:51;;;;;;;5.00;3.80;;;;;;;28.66;30.75;97834.21;107521;1273;59380;-74
2022/10/08 11:16:43;;;;;;;5.00;3.80;;;;;;;28.91;30.18;97829.65;107489;1272;58990;-75
2022/10/08 11:19:32;;;;;;;5.40;3.80;;;;;;;28.74;29.70;97827.23;107821;1267;69823;-77
2022/10/08 11:22:38;;;;;;;4.40;4.00;;;;;;;28.25;30.64;97818.92;107725;1267;68871;-74
2022/10/08 11:25:16;;;;;;;4.90;4.40;;;;;;;27.70;31.44;97816.96;107915;1267;68666;-74
2022/10/08 11:27:54;;;;;;;4.70;3.00;;;;;;;27.07;32.14;97813.02;107850;1267;58894;-74
2022/10/08 11:30:53;;;;;;;3.90;3.10;;;;;;;27.57;31.11;97808.02;107820;1267;58956;-75
2022/10/08 11:33:22;;;;;;;5.20;4.10;;;;;;;28.56;30.39;97805.76;107709;1263;71276;-74
2022/10/08 11:36:28;;;;;;;3.30;2.90;;;;;;;28.41;29.68;97801.94;107773;1270;69227;-74
2022/10/08 11:39:15;;;;;;;4.70;4.30;;;;;;;28.42;30.65;97793.42;108016;1267;69252;-73
2022/10/08 11:41:55;;;;;;;3.30;3.00;;;;;;;28.66;30.36;97794.64;107812;1266;58932;-74
2022/10/08 11:44:25;;;;;;;3.80;3.20;;;;;;;28.24;30.53;97788.00;107856;1269;59298;-74
2022/10/08 11:47:32;;;;;;;4.30;3.00;;;;;;;28.58;30.42;97786.38;107829;1267;70261;-75
2022/10/08 11:50:04;;;;;;;3.90;3.50;;;;;;;28.80;29.88;97780.15;107788;1265;69730;-74
2022/10/08 11:52:34;;;;;;;5.80;4.10;;;;;;;29.23;29.72;97774.46;107855;1268;70350;-74
2022/10/08 11:55:03;;;;;;;4.20;3.60;;;;;;;29.30;29.82;97773.79;107907;1267;58881;-76
2022/10/08 11:57:35;;;;;;;4.00;3.60;;;;;;;28.32;30.88;97770.65;107895;1268;58967;-75
2022/10/08 12:00:29;;;;;;;5.10;3.90;;;;;;;28.87;30.22;97773.34;107757;1267;70222;-75
2022/10/08 12:02:59;;;;;;;3.70;3.00;;;;;;;29.43;29.32;97767.42;107866;1269;69683;-73
2022/10/08 12:05:40;;;;;;;3.90;3.30;;;;;;;29.68;28.97;97762.29;107910;1266;69173;-73
2022/10/08 12:08:50;;;;;;;3.70;3.30;;;;;;;30.09;28.27;97754.44;107731;1269;58937;-74
2022/10/08 12:11:31;;;;;;;3.40;2.90;;;;;;;30.30;27.60;97746.58;108023;1265;58962;-74
2022/10/08 12:14:12;;;;;;;4.60;4.00;;;;;;;30.88;27.65;97743.05;107836;1266;70875;-75
2022/10/08 12:16:47;;;;;;;5.30;4.10;;;;;;;30.37;27.90;97735.66;107744;1267;69204;-73
2022/10/08 12:19:31;;;;;;;4.00;3.60;;;;;;;29.57;29.17;97733.64;108004;1267;68473;-74
2022/10/08 12:22:23;;;;;;;3.40;3.10;;;;;;;28.43;30.36;97734.67;107925;1270;58964;-73
2022/10/08 12:24:59;;;;;;;4.90;4.30;;;;;;;28.70;30.06;97731.50;107939;1267;58932;-75
2022/10/08 12:27:36;;;;;;;4.30;3.90;;;;;;;28.01;30.94;97730.51;108033;1267;69633;-74
2022/10/08 12:30:11;;;;;;;4.20;3.80;;;;;;;27.73;31.78;97729.42;107867;1269;69186;-75
2022/10/08 12:32:42;;;;;;;4.00;3.60;;;;;;;28.75;30.97;97732.79;107781;1266;69239;-75
2022/10/08 12:35:27;;;;;;;3.40;3.10;;;;;;;29.01;29.64;97726.89;107824;1267;59003;-74
2022/10/08 12:37:58;;;;;;;4.30;3.30;;;;;;;29.12;29.52;97726.40;107901;1267;58960;-76
2022/10/08 12:40:30;;;;;;;3.70;3.00;;;;;;;29.32;29.04;97723.10;107802;1263;70493;-76
2022/10/08 12:43:14;;;;;;;5.60;3.80;;;;;;;29.20;28.91;97722.73;107933;1262;70280;-75
2022/10/08 12:45:54;;;;;;;4.80;4.20;;;;;;;29.91;28.33;97719.58;107989;1267;69028;-75
2022/10/08 12:48:32;;;;;;;4.60;3.10;;;;;;;28.73;29.08;97716.69;107706;1269;58918;-75
2022/10/08 12:51:28;;;;;;;6.80;4.50;;;;;;;28.15;29.76;97714.59;107905;1266;58928;-75
2022/10/08 12:53:57;;;;;;;4.80;3.80;;;;;;;27.87;30.48;97712.98;107731;1267;70687;-74
2022/10/08 12:56:27;;;;;;;;;;;;;;;28.09;30.31;97709.86;108007;1267;69010;-73
2022/10/08 12:59:00;;;;;;;4.90;3.70;;;;;;;27.75;30.56;97705.80;107927;1266;69955;-75
2022/10/08 13:01:30;;;;;;;4.70;3.80;;;;;;;27.07;31.84;97701.78;107766;1269;58922;-75